Time;durP1;ratioP1;P1;durP2;ratioP2;P2;SDS_P1;SDS_P2;PMS_P1;PMS_P2;Temp;Humidity;BMP_temperature;BMP_pressure;BME280_temperature;BME280_humidity;BME280_pressure;Samples;Min_cycle;Max_cycle;Signal;HPM_P1;HPM_P2
2023/03/15 00:01:45;;;;;;;1.90;0.20;;;;;;;;;;5280943;28;20043;-71
2023/03/15 00:04:16;;;;;;;2.10;0.20;;;;;;;;;;5282297;28;20013;-71
2023/03/15 00:06:47;;;;;;;1.40;0.20;;;;;;;;;;5281703;28;20131;-71
2023/03/15 00:09:21;;;;;;;2.05;0.13;;;;;;;;;;5281920;28;20027;-71
2023/03/15 00:11:55;;;;;;;2.88;0.52;;;;;;;;;;5282202;28;20383;-71
2023/03/15 00:14:26;;;;;;;1.27;0.20;;;;;;;;;;5281740;28;20032;-72
2023/03/15 00:16:57;;;;;;;0.90;0.20;;;;;;;;;;5281415;28;20012;-72
2023/03/15 00:19:28;;;;;;;1.08;0.20;;;;;;;;;;5281826;28;20028;-72
2023/03/15 00:22:00;;;;;;;2.42;0.30;;;;;;;;;;5282463;28;20013;-72
2023/03/15 00:24:31;;;;;;;1.17;0.30;;;;;;;;;;5279962;28;20033;-73
2023/03/15 00:27:03;;;;;;;1.63;0.20;;;;;;;;;;5282122;28;20028;-72
2023/03/15 00:29:34;;;;;;;0.90;0.10;;;;;;;;;;5280821;28;20028;-72
2023/03/15 00:32:05;;;;;;;1.13;0.25;;;;;;;;;;5282074;28;20021;-72
2023/03/15 00:34:36;;;;;;;1.17;0.15;;;;;;;;;;5281651;28;20488;-72
2023/03/15 00:37:07;;;;;;;1.92;0.20;;;;;;;;;;5281163;28;20029;-71
2023/03/15 00:39:39;;;;;;;1.92;0.20;;;;;;;;;;5281452;28;20538;-73
2023/03/15 00:42:14;;;;;;;1.08;0.38;;;;;;;;;;5282339;28;20023;-72
2023/03/15 00:44:45;;;;;;;1.33;0.20;;;;;;;;;;5280679;28;20107;-73
2023/03/15 00:47:16;;;;;;;0.75;0.20;;;;;;;;;;5281891;28;20540;-71
2023/03/15 00:49:49;;;;;;;1.40;0.20;;;;;;;;;;5281212;28;20372;-71
2023/03/15 00:52:20;;;;;;;3.13;0.30;;;;;;;;;;5280638;28;20094;-72
2023/03/15 00:54:52;;;;;;;2.08;0.20;;;;;;;;;;5281827;28;20044;-71
2023/03/15 00:57:23;;;;;;;3.85;0.32;;;;;;;;;;5280749;28;20425;-71
2023/03/15 00:59:55;;;;;;;3.42;0.20;;;;;;;;;;5281840;28;20021;-72
2023/03/15 01:02:26;;;;;;;1.58;0.40;;;;;;;;;;5281470;28;20039;-72
2023/03/15 01:04:57;;;;;;;2.38;0.20;;;;;;;;;;5281024;28;20024;-72
2023/03/15 01:07:28;;;;;;;3.17;0.30;;;;;;;;;;5281402;28;20426;-72
2023/03/15 01:10:00;;;;;;;1.85;0.28;;;;;;;;;;5282343;28;20016;-72
2023/03/15 01:12:32;;;;;;;2.28;0.35;;;;;;;;;;5280377;28;20024;-71
2023/03/15 01:15:04;;;;;;;1.75;0.28;;;;;;;;;;5281566;28;20067;-72
2023/03/15 01:17:36;;;;;;;2.85;0.45;;;;;;;;;;5280826;28;20064;-72
2023/03/15 01:20:08;;;;;;;3.22;0.50;;;;;;;;;;5280928;28;20475;-71
2023/03/15 01:22:39;;;;;;;3.13;0.90;;;;;;;;;;5281184;28;20314;-71
2023/03/15 01:25:10;;;;;;;5.00;1.00;;;;;;;;;;5281620;28;20021;-71
2023/03/15 01:27:41;;;;;;;3.65;1.15;;;;;;;;;;5280249;28;20017;-72
2023/03/15 01:30:12;;;;;;;5.62;1.64;;;;;;;;;;5281785;28;20039;-72
2023/03/15 01:32:43;;;;;;;3.28;1.60;;;;;;;;;;5280341;28;20027;-72
2023/03/15 01:35:15;;;;;;;6.07;1.83;;;;;;;;;;5282033;28;20035;-74
2023/03/15 01:37:48;;;;;;;5.32;2.63;;;;;;;;;;5284676;28;20020;-72
2023/03/15 01:40:19;;;;;;;4.38;3.00;;;;;;;;;;5284007;28;20024;-72
2023/03/15 01:43:03;;;;;;;4.50;2.42;;;;;;;;;;5285044;28;20262;-71
2023/03/15 01:45:52;;;;;;;4.22;2.55;;;;;;;;;;5284636;28;20051;-71
2023/03/15 01:48:28;;;;;;;5.45;3.45;;;;;;;;;;5283933;28;20025;-72
2023/03/15 01:51:01;;;;;;;5.50;3.28;;;;;;;;;;5285050;28;20052;-72
2023/03/15 01:53:32;;;;;;;3.67;2.75;;;;;;;;;;5283832;28;20024;-72
2023/03/15 01:56:04;;;;;;;5.95;3.58;;;;;;;;;;5284773;28;20475;-70
2023/03/15 01:58:37;;;;;;;4.63;3.40;;;;;;;;;;5284407;28;20107;-71
2023/03/15 02:01:08;;;;;;;4.60;4.00;;;;;;;;;;5283929;28;20042;-70
2023/03/15 02:03:45;;;;;;;4.68;3.83;;;;;;;;;;5284173;28;20475;-71
2023/03/15 02:06:17;;;;;;;8.25;4.38;;;;;;;;;;5284725;28;20024;-72
2023/03/15 02:08:50;;;;;;;5.10;4.00;;;;;;;;;;5283212;28;20082;-71
2023/03/15 02:11:24;;;;;;;7.15;4.30;;;;;;;;;;5284341;28;20035;-71
2023/03/15 02:13:56;;;;;;;7.18;5.07;;;;;;;;;;5284739;28;20451;-70
2023/03/15 02:16:28;;;;;;;5.38;4.75;;;;;;;;;;5282971;28;20028;-69
2023/03/15 02:18:59;;;;;;;5.47;4.97;;;;;;;;;;5284647;28;20020;-69
2023/03/15 02:22:03;;;;;;;6.57;5.30;;;;;;;;;;5283908;28;20025;-69
2023/03/15 02:24:49;;;;;;;5.03;3.95;;;;;;;;;;5260755;28;20052;-68
2023/03/15 02:27:25;;;;;;;5.07;4.57;;;;;;;;;;5284133;28;20028;-69
2023/03/15 02:29:57;;;;;;;5.30;4.80;;;;;;;;;;5283549;28;20034;-69
2023/03/15 02:32:28;;;;;;;6.50;5.60;;;;;;;;;;5283394;28;20028;-70
2023/03/15 02:34:59;;;;;;;5.68;5.15;;;;;;;;;;5284396;28;20028;-69
2023/03/15 02:37:30;;;;;;;5.78;5.28;;;;;;;;;;5282559;28;20017;-70
2023/03/15 02:40:10;;;;;;;5.15;4.72;;;;;;;;;;5284141;28;20498;-70
2023/03/15 02:42:42;;;;;;;5.65;5.15;;;;;;;;;;5283627;28;20024;-70
2023/03/15 02:45:13;;;;;;;4.88;4.03;;;;;;;;;;5283608;28;20025;-70
2023/03/15 02:47:45;;;;;;;6.10;4.28;;;;;;;;;;5282632;28;20025;-70
2023/03/15 02:50:16;;;;;;;4.65;4.05;;;;;;;;;;5282975;28;20045;-70
2023/03/15 02:52:47;;;;;;;5.07;4.57;;;;;;;;;;5283310;28;20425;-70
2023/03/15 02:55:20;;;;;;;4.57;4.03;;;;;;;;;;5283665;28;20043;-70
2023/03/15 02:57:51;;;;;;;4.30;3.90;;;;;;;;;;5282814;28;20021;-70
2023/03/15 03:00:23;;;;;;;4.32;3.92;;;;;;;;;;5283526;28;20019;-70
2023/03/15 03:02:54;;;;;;;4.50;4.10;;;;;;;;;;5283317;28;20017;-70
2023/03/15 03:05:25;;;;;;;4.22;3.88;;;;;;;;;;5282062;28;20506;-70
2023/03/15 03:07:57;;;;;;;3.95;3.65;;;;;;;;;;5283383;28;20436;-70
2023/03/15 03:10:28;;;;;;;4.93;4.53;;;;;;;;;;5283133;28;20031;-70
2023/03/15 03:13:00;;;;;;;6.05;4.60;;;;;;;;;;5282909;28;20121;-70
2023/03/15 03:15:31;;;;;;;5.00;4.50;;;;;;;;;;5282964;28;20028;-71
2023/03/15 03:18:02;;;;;;;6.15;3.95;;;;;;;;;;5282613;28;20103;-71
2023/03/15 03:20:33;;;;;;;4.40;4.00;;;;;;;;;;5282885;28;20043;-70
2023/03/15 03:23:05;;;;;;;4.55;4.15;;;;;;;;;;5283380;28;20100;-70
2023/03/15 03:25:36;;;;;;;5.07;4.57;;;;;;;;;;5281791;28;20017;-71
2023/03/15 03:28:07;;;;;;;4.28;3.88;;;;;;;;;;5283101;28;20060;-70
2023/03/15 03:30:38;;;;;;;4.95;4.55;;;;;;;;;;5282418;28;20451;-71
2023/03/15 03:33:09;;;;;;;5.18;4.75;;;;;;;;;;5282525;28;20074;-70
2023/03/15 03:35:41;;;;;;;5.80;5.20;;;;;;;;;;5282253;28;20028;-71
2023/03/15 03:38:13;;;;;;;5.72;5.22;;;;;;;;;;5283063;28;20459;-71
2023/03/15 03:40:44;;;;;;;5.70;5.20;;;;;;;;;;5281450;28;20020;-71
2023/03/15 03:43:15;;;;;;;4.90;4.50;;;;;;;;;;5282799;28;20020;-71
2023/03/15 03:45:46;;;;;;;5.63;5.13;;;;;;;;;;5282401;28;20020;-70
2023/03/15 03:48:18;;;;;;;5.45;5.03;;;;;;;;;;5281960;28;20031;-71
2023/03/15 03:50:49;;;;;;;5.27;4.80;;;;;;;;;;5282026;28;20060;-71
2023/03/15 03:53:20;;;;;;;5.60;5.10;;;;;;;;;;5281192;28;20104;-71
2023/03/15 03:55:53;;;;;;;4.82;4.40;;;;;;;;;;5282341;28;20036;-70
2023/03/15 03:58:24;;;;;;;5.03;4.63;;;;;;;;;;5281787;28;20032;-72
2023/03/15 04:00:55;;;;;;;6.38;5.88;;;;;;;;;;5281929;28;20485;-71
2023/03/15 04:03:26;;;;;;;5.97;5.47;;;;;;;;;;5281930;28;20024;-71
2023/03/15 04:05:58;;;;;;;6.10;5.50;;;;;;;;;;5282428;28;20024;-71
2023/03/15 04:08:29;;;;;;;6.00;5.40;;;;;;;;;;5281173;28;20021;-71
2023/03/15 04:11:04;;;;;;;6.10;5.60;;;;;;;;;;5282540;28;20024;-71
2023/03/15 04:13:35;;;;;;;6.23;5.73;;;;;;;;;;5281740;28;20047;-71
2023/03/15 04:16:06;;;;;;;6.10;5.60;;;;;;;;;;5281573;28;20029;-71
2023/03/15 04:18:39;;;;;;;5.30;4.80;;;;;;;;;;5281583;28;20029;-71
2023/03/15 04:21:10;;;;;;;6.03;5.43;;;;;;;;;;5282502;28;20463;-71
2023/03/15 04:23:41;;;;;;;5.70;5.20;;;;;;;;;;5280949;28;20035;-71
2023/03/15 04:26:13;;;;;;;5.97;5.43;;;;;;;;;;5281982;28;20028;-71
2023/03/15 04:28:44;;;;;;;6.00;5.40;;;;;;;;;;5280717;28;20030;-70
2023/03/15 04:31:15;;;;;;;6.43;5.80;;;;;;;;;;5282207;28;20460;-71
2023/03/15 04:33:47;;;;;;;5.90;5.40;;;;;;;;;;5281662;28;20040;-71
2023/03/15 04:36:18;;;;;;;6.17;5.57;;;;;;;;;;5281499;28;20025;-71
2023/03/15 04:38:49;;;;;;;7.37;5.87;;;;;;;;;;5281691;28;20066;-71
2023/03/15 04:41:20;;;;;;;5.53;5.03;;;;;;;;;;5281614;28;20028;-71
2023/03/15 04:43:51;;;;;;;5.67;5.17;;;;;;;;;;5281370;28;20021;-71
2023/03/15 04:46:22;;;;;;;5.80;5.03;;;;;;;;;;5281839;28;20060;-71
2023/03/15 04:48:54;;;;;;;5.60;4.97;;;;;;;;;;5281745;28;20025;-70
2023/03/15 04:51:25;;;;;;;6.20;4.97;;;;;;;;;;5280256;28;20063;-70
2023/03/15 04:53:56;;;;;;;5.40;4.87;;;;;;;;;;5281822;28;20382;-71
2023/03/15 04:56:28;;;;;;;5.36;4.86;;;;;;;;;;5280857;28;20031;-71
2023/03/15 04:58:59;;;;;;;5.43;4.93;;;;;;;;;;5281861;28;20013;-71
2023/03/15 05:01:30;;;;;;;7.43;5.53;;;;;;;;;;5281507;28;20475;-71
2023/03/15 05:04:01;;;;;;;5.40;4.83;;;;;;;;;;5281239;28;20028;-71
2023/03/15 05:06:33;;;;;;;6.00;5.00;;;;;;;;;;5281055;28;20051;-71
2023/03/15 05:09:04;;;;;;;7.03;5.43;;;;;;;;;;5281829;28;20020;-71
2023/03/15 05:11:35;;;;;;;5.93;5.00;;;;;;;;;;5283790;28;20017;-72
2023/03/15 05:14:06;;;;;;;6.53;5.67;;;;;;;;;;5285723;28;20032;-71
2023/03/15 05:16:37;;;;;;;6.07;4.90;;;;;;;;;;5285302;28;20050;-71
2023/03/15 05:19:10;;;;;;;6.10;4.97;;;;;;;;;;5284870;28;20094;-71
2023/03/15 05:21:41;;;;;;;5.13;4.63;;;;;;;;;;5285269;28;20096;-71
2023/03/15 05:24:13;;;;;;;4.63;4.23;;;;;;;;;;5285737;28;20100;-71
2023/03/15 05:26:45;;;;;;;4.87;4.37;;;;;;;;;;5284234;28;20390;-71
2023/03/15 05:29:16;;;;;;;6.27;4.40;;;;;;;;;;5285394;28;20013;-72
2023/03/15 05:31:48;;;;;;;5.77;4.63;;;;;;;;;;5284302;28;20058;-72
2023/03/15 05:34:22;;;;;;;4.97;4.50;;;;;;;;;;5284850;28;20032;-73
2023/03/15 05:36:54;;;;;;;6.20;4.80;;;;;;;;;;5284886;28;20024;-72
2023/03/15 05:39:25;;;;;;;5.60;5.10;;;;;;;;;;5283560;28;20532;-71
2023/03/15 05:41:56;;;;;;;6.33;4.30;;;;;;;;;;5284986;28;20032;-72
2023/03/15 05:44:27;;;;;;;5.27;4.77;;;;;;;;;;5284413;28;20018;-72
2023/03/15 05:46:59;;;;;;;6.23;5.20;;;;;;;;;;5284216;28;20024;-72
2023/03/15 05:49:30;;;;;;;5.53;4.90;;;;;;;;;;5284372;28;20016;-72
2023/03/15 05:52:02;;;;;;;5.80;5.20;;;;;;;;;;5284490;28;20181;-72
2023/03/15 05:54:33;;;;;;;6.17;5.00;;;;;;;;;;5283316;28;20044;-71
2023/03/15 05:57:04;;;;;;;6.07;5.47;;;;;;;;;;5284978;28;20048;-71
2023/03/15 05:59:35;;;;;;;6.63;6.00;;;;;;;;;;5284347;28;20020;-72
2023/03/15 06:02:07;;;;;;;6.23;5.17;;;;;;;;;;5284245;28;20054;-73
2023/03/15 06:04:38;;;;;;;6.90;5.17;;;;;;;;;;5284200;28;20524;-73
2023/03/15 06:07:09;;;;;;;7.13;5.60;;;;;;;;;;5284167;28;20039;-73
2023/03/15 06:09:40;;;;;;;5.30;4.80;;;;;;;;;;5284209;28;20029;-73
2023/03/15 06:12:12;;;;;;;5.80;5.20;;;;;;;;;;5284763;28;20020;-72
2023/03/15 06:14:43;;;;;;;4.90;4.50;;;;;;;;;;5283286;28;20378;-72
2023/03/15 06:17:14;;;;;;;6.13;5.13;;;;;;;;;;5284483;28;20029;-71
2023/03/15 06:19:45;;;;;;;5.63;5.00;;;;;;;;;;5283989;28;20375;-71
2023/03/15 06:22:19;;;;;;;5.27;4.67;;;;;;;;;;5283887;28;20167;-71
2023/03/15 06:24:50;;;;;;;5.37;4.90;;;;;;;;;;5283957;28;20070;-71
2023/03/15 06:27:21;;;;;;;6.17;5.10;;;;;;;;;;5284056;28;20020;-72
2023/03/15 06:29:52;;;;;;;7.40;5.43;;;;;;;;;;5283070;28;20068;-72
2023/03/15 06:32:24;;;;;;;6.10;4.67;;;;;;;;;;5283988;28;20054;-72
2023/03/15 06:34:55;;;;;;;6.53;4.33;;;;;;;;;;5283648;28;20050;-72
2023/03/15 06:37:26;;;;;;;4.87;4.37;;;;;;;;;;5283718;28;20021;-71
2023/03/15 06:39:57;;;;;;;6.00;4.87;;;;;;;;;;5283913;28;20109;-71
2023/03/15 06:42:28;;;;;;;4.88;4.40;;;;;;;;;;5282824;28;20406;-71
2023/03/15 06:45:00;;;;;;;4.82;4.28;;;;;;;;;;5284250;28;20032;-72
2023/03/15 06:47:31;;;;;;;4.95;4.45;;;;;;;;;;5283410;28;20027;-73
2023/03/15 06:50:03;;;;;;;5.13;4.30;;;;;;;;;;5283034;28;20058;-72
2023/03/15 06:52:34;;;;;;;5.15;4.53;;;;;;;;;;5283285;28;20021;-72
2023/03/15 06:55:05;;;;;;;5.95;4.07;;;;;;;;;;5283502;28;20115;-72
2023/03/15 06:57:37;;;;;;;5.57;5.03;;;;;;;;;;5282461;28;20027;-72
2023/03/15 07:00:10;;;;;;;5.05;4.57;;;;;;;;;;5283751;28;20024;-73
2023/03/15 07:02:41;;;;;;;4.90;3.80;;;;;;;;;;5283210;28;20013;-73
2023/03/15 07:05:12;;;;;;;4.50;4.10;;;;;;;;;;5282682;28;20028;-72
2023/03/15 07:07:43;;;;;;;4.95;3.92;;;;;;;;;;5282777;28;20029;-72
2023/03/15 07:10:15;;;;;;;5.57;4.47;;;;;;;;;;5282512;28;20502;-71
2023/03/15 07:12:46;;;;;;;4.95;3.90;;;;;;;;;;5282882;28;20030;-72
2023/03/15 07:15:17;;;;;;;5.15;4.50;;;;;;;;;;5283212;28;20032;-72
2023/03/15 07:17:48;;;;;;;5.85;5.25;;;;;;;;;;5282036;28;20032;-72
2023/03/15 07:20:19;;;;;;;6.45;5.25;;;;;;;;;;5283207;28;20040;-72
2023/03/15 07:22:51;;;;;;;4.45;4.05;;;;;;;;;;5282849;28;20034;-72
2023/03/15 07:25:22;;;;;;;5.10;3.17;;;;;;;;;;5282016;28;20028;-73
2023/03/15 07:27:54;;;;;;;3.55;2.38;;;;;;;;;;5282753;28;20024;-72
2023/03/15 07:30:25;;;;;;;2.10;1.90;;;;;;;;;;5282345;28;20024;-73
2023/03/15 07:32:56;;;;;;;3.05;2.05;;;;;;;;;;5281590;28;20016;-72
2023/03/15 07:35:27;;;;;;;4.00;2.10;;;;;;;;;;5282189;28;20033;-72
2023/03/15 07:37:58;;;;;;;3.72;2.17;;;;;;;;;;5282979;28;20371;-72
2023/03/15 07:40:29;;;;;;;4.20;2.42;;;;;;;;;;5281626;28;20032;-72
2023/03/15 07:43:01;;;;;;;3.74;2.30;;;;;;;;;;5282971;28;20103;-72
2023/03/15 07:45:33;;;;;;;3.65;2.38;;;;;;;;;;5281395;28;20346;-72
2023/03/15 07:48:05;;;;;;;4.07;2.40;;;;;;;;;;5282581;28;20032;-72
2023/03/15 07:50:36;;;;;;;3.25;2.05;;;;;;;;;;5281928;28;20495;-73
2023/03/15 07:53:07;;;;;;;4.93;2.22;;;;;;;;;;5281569;28;20064;-72
2023/03/15 07:55:39;;;;;;;4.50;1.42;;;;;;;;;;5281990;28;20036;-73
2023/03/15 07:58:10;;;;;;;2.25;1.45;;;;;;;;;;5282373;28;20069;-71
2023/03/15 08:00:41;;;;;;;3.38;2.10;;;;;;;;;;5281118;28;20069;-72
2023/03/15 08:03:12;;;;;;;5.15;1.60;;;;;;;;;;5282523;28;20060;-73
2023/03/15 08:05:44;;;;;;;3.85;1.42;;;;;;;;;;5282080;28;20059;-73
2023/03/15 08:08:15;;;;;;;2.80;1.35;;;;;;;;;;5281979;28;20024;-72
2023/03/15 08:10:46;;;;;;;2.55;1.10;;;;;;;;;;5281833;28;20095;-74
2023/03/15 08:13:17;;;;;;;3.50;1.52;;;;;;;;;;5282195;28;20146;-72
2023/03/15 08:15:48;;;;;;;1.90;1.30;;;;;;;;;;5280828;28;20490;-74
2023/03/15 08:18:20;;;;;;;3.17;1.10;;;;;;;;;;5282168;28;20017;-74
2023/03/15 08:20:51;;;;;;;2.78;0.90;;;;;;;;;;5281298;28;20274;-75
2023/03/15 08:23:22;;;;;;;4.20;0.88;;;;;;;;;;5282320;28;20021;-74
2023/03/15 08:25:53;;;;;;;2.55;0.98;;;;;;;;;;5281381;28;20025;-74
2023/03/15 08:28:25;;;;;;;5.32;1.23;;;;;;;;;;5280610;28;20016;-74
2023/03/15 08:30:56;;;;;;;3.17;0.90;;;;;;;;;;5282365;28;20020;-74
2023/03/15 08:33:29;;;;;;;3.00;0.90;;;;;;;;;;5281377;28;20091;-73
2023/03/15 08:36:00;;;;;;;2.95;0.80;;;;;;;;;;5281126;28;20044;-72
2023/03/15 08:38:31;;;;;;;4.28;1.00;;;;;;;;;;5281409;28;20459;-73
2023/03/15 08:41:02;;;;;;;2.40;0.73;;;;;;;;;;5281872;28;20352;-74
2023/03/15 08:43:34;;;;;;;4.68;0.80;;;;;;;;;;5280702;28;20099;-74
2023/03/15 08:46:05;;;;;;;4.78;1.00;;;;;;;;;;5284116;28;20020;-73
2023/03/15 08:48:36;;;;;;;2.93;0.90;;;;;;;;;;5284829;28;20025;-72
2023/03/15 08:51:07;;;;;;;3.28;0.70;;;;;;;;;;5286076;28;20796;-74
2023/03/15 08:53:39;;;;;;;3.13;0.70;;;;;;;;;;5285499;28;20047;-73
2023/03/15 08:56:11;;;;;;;3.22;0.77;;;;;;;;;;5285646;28;20467;-73
2023/03/15 08:58:42;;;;;;;2.22;0.60;;;;;;;;;;5285674;28;20028;-73
2023/03/15 09:01:13;;;;;;;2.03;0.77;;;;;;;;;;5286177;28;20024;-72
2023/03/15 09:03:45;;;;;;;2.05;0.90;;;;;;;;;;5284365;28;20020;-71
2023/03/15 09:06:16;;;;;;;2.45;0.70;;;;;;;;;;5281576;28;20028;-71
2023/03/15 09:08:47;;;;;;;2.28;0.63;;;;;;;;;;5284321;28;20081;-71
2023/03/15 09:11:19;;;;;;;3.15;0.70;;;;;;;;;;5284375;28;20428;-72
2023/03/15 09:13:50;;;;;;;3.03;0.70;;;;;;;;;;5284833;28;20021;-72
2023/03/15 09:16:21;;;;;;;2.70;0.65;;;;;;;;;;5284389;28;20025;-73
2023/03/15 09:18:52;;;;;;;2.33;0.47;;;;;;;;;;5282939;28;20039;-74
2023/03/15 09:21:24;;;;;;;5.47;0.70;;;;;;;;;;5285424;28;20082;-74
2023/03/15 09:23:55;;;;;;;3.30;0.50;;;;;;;;;;5284747;28;20044;-74
2023/03/15 09:26:26;;;;;;;2.38;0.52;;;;;;;;;;5284451;28;20107;-73
2023/03/15 09:28:57;;;;;;;2.38;0.45;;;;;;;;;;5285260;28;20016;-73
2023/03/15 09:31:30;;;;;;;2.00;0.50;;;;;;;;;;5284240;28;20013;-74
2023/03/15 09:34:02;;;;;;;2.72;0.50;;;;;;;;;;5284896;28;20035;-75
2023/03/15 09:36:33;;;;;;;2.78;0.50;;;;;;;;;;5284641;28;20036;-75
2023/03/15 09:39:04;;;;;;;2.63;0.45;;;;;;;;;;5283978;28;20090;-74
2023/03/15 09:41:41;;;;;;;2.17;0.40;;;;;;;;;;5284145;28;20424;-75
2023/03/15 09:44:37;;;;;;;4.55;0.45;;;;;;;;;;5285248;28;20191;-75
2023/03/15 09:47:23;;;;;;;4.15;0.60;;;;;;;;;;5284285;28;20131;-76
2023/03/15 09:50:13;;;;;;;4.50;0.45;;;;;;;;;;5284565;28;20498;-75
2023/03/15 09:52:47;;;;;;;1.92;0.30;;;;;;;;;;5284129;28;20126;-76
2023/03/15 09:55:23;;;;;;;3.63;0.40;;;;;;;;;;5285093;28;20119;-76
2023/03/15 09:58:25;;;;;;;3.25;0.50;;;;;;;;;;5283904;28;20155;-74
2023/03/15 10:01:05;;;;;;;3.50;0.40;;;;;;;;;;5279169;28;20036;-74
2023/03/15 10:03:42;;;;;;;1.65;0.40;;;;;;;;;;5284247;28;20048;-74
2023/03/15 10:06:17;;;;;;;2.63;0.50;;;;;;;;;;5284006;28;20027;-74
2023/03/15 10:08:49;;;;;;;4.45;0.50;;;;;;;;;;5284078;28;20025;-74
2023/03/15 10:11:37;;;;;;;5.72;0.50;;;;;;;;;;5284303;28;20107;-74
2023/03/15 10:14:38;;;;;;;4.05;0.63;;;;;;;;;;5283805;28;20471;-74
2023/03/15 10:17:14;;;;;;;4.80;0.50;;;;;;;;;;5265014;28;20032;-72
2023/03/15 10:19:49;;;;;;;3.90;0.63;;;;;;;;;;5284172;28;20497;-73
2023/03/15 10:22:28;;;;;;;5.88;0.40;;;;;;;;;;5283285;28;20386;-74
2023/03/15 10:24:59;;;;;;;5.53;0.50;;;;;;;;;;5283664;28;20032;-75
2023/03/15 10:27:33;;;;;;;4.25;0.40;;;;;;;;;;5281788;28;20028;-75
2023/03/15 10:30:18;;;;;;;2.88;0.40;;;;;;;;;;5284182;28;20112;-75
2023/03/15 10:33:05;;;;;;;3.00;0.30;;;;;;;;;;5283783;28;20536;-75
2023/03/15 10:35:36;;;;;;;3.53;0.30;;;;;;;;;;5282421;28;20383;-75
2023/03/15 10:38:19;;;;;;;2.95;0.45;;;;;;;;;;5284158;28;20099;-75
2023/03/15 10:40:54;;;;;;;2.65;0.30;;;;;;;;;;5284004;28;20467;-74
2023/03/15 10:43:35;;;;;;;4.35;0.38;;;;;;;;;;5282668;28;20040;-74
2023/03/15 10:46:34;;;;;;;2.40;0.30;;;;;;;;;;5282344;28;20017;-75
2023/03/15 10:49:11;;;;;;;3.15;0.30;;;;;;;;;;5279632;28;20094;-74
2023/03/15 10:51:45;;;;;;;3.28;0.30;;;;;;;;;;5280954;28;20044;-75
2023/03/15 10:54:16;;;;;;;3.10;0.30;;;;;;;;;;5281546;28;20032;-74
2023/03/15 10:56:47;;;;;;;1.73;0.30;;;;;;;;;;5280377;28;20028;-74
2023/03/15 10:59:20;;;;;;;3.75;0.40;;;;;;;;;;5281513;28;20464;-75
2023/03/15 11:01:53;;;;;;;2.65;0.30;;;;;;;;;;5283026;28;20342;-75
2023/03/15 11:04:29;;;;;;;1.55;0.30;;;;;;;;;;5282195;28;20070;-76
2023/03/15 11:07:01;;;;;;;1.60;0.28;;;;;;;;;;5283360;28;20054;-74
2023/03/15 11:09:37;;;;;;;2.22;0.45;;;;;;;;;;5281470;28;20100;-75
2023/03/15 11:12:09;;;;;;;1.92;0.22;;;;;;;;;;5283499;28;20042;-75
2023/03/15 11:14:42;;;;;;;2.05;0.25;;;;;;;;;;5282681;28;20036;-74
2023/03/15 11:17:17;;;;;;;1.23;0.30;;;;;;;;;;5282387;28;20013;-75
2023/03/15 11:19:56;;;;;;;2.20;0.20;;;;;;;;;;5282863;28;20078;-75
2023/03/15 11:22:27;;;;;;;2.95;0.30;;;;;;;;;;5282793;28;20383;-74
2023/03/15 11:24:58;;;;;;;2.97;0.30;;;;;;;;;;5282380;28;20013;-75
2023/03/15 11:27:30;;;;;;;2.25;0.20;;;;;;;;;;5282510;28;20024;-74
2023/03/15 11:30:03;;;;;;;2.42;0.30;;;;;;;;;;5283137;28;20368;-74
2023/03/15 11:32:34;;;;;;;3.00;0.28;;;;;;;;;;5281819;28;20534;-75
2023/03/15 11:35:07;;;;;;;1.38;0.20;;;;;;;;;;5283165;28;20104;-75
2023/03/15 11:37:38;;;;;;;3.05;0.40;;;;;;;;;;5281619;28;20303;-75
2023/03/15 11:40:22;;;;;;;3.50;0.40;;;;;;;;;;5283165;28;20028;-74
2023/03/15 11:43:05;;;;;;;2.85;0.30;;;;;;;;;;5282703;28;20267;-74
2023/03/15 11:45:55;;;;;;;3.13;0.28;;;;;;;;;;5281642;28;20104;-75
2023/03/15 11:48:38;;;;;;;2.47;0.30;;;;;;;;;;5282367;28;20075;-75
2023/03/15 11:51:10;;;;;;;1.50;0.30;;;;;;;;;;5282576;28;20055;-75
2023/03/15 11:53:54;;;;;;;1.65;0.30;;;;;;;;;;5281390;28;20021;-75
2023/03/15 11:56:27;;;;;;;2.88;0.30;;;;;;;;;;5281672;28;20028;-78
2023/03/15 11:59:26;;;;;;;3.10;0.40;;;;;;;;;;5281577;28;20132;-76
2023/03/15 12:02:09;;;;;;;1.83;0.30;;;;;;;;;;5280788;28;20029;-76
2023/03/15 12:04:44;;;;;;;3.05;0.30;;;;;;;;;;5281437;28;20033;-75
2023/03/15 12:07:18;;;;;;;1.15;0.20;;;;;;;;;;5281495;28;20024;-77
2023/03/15 12:09:55;;;;;;;2.40;0.30;;;;;;;;;;5281704;28;20028;-76
2023/03/15 12:12:29;;;;;;;2.13;0.32;;;;;;;;;;5281950;28;20016;-76
2023/03/15 12:15:01;;;;;;;2.75;0.38;;;;;;;;;;5282306;28;20490;-75
2023/03/15 12:17:38;;;;;;;1.55;0.20;;;;;;;;;;5281596;28;20028;-76
2023/03/15 12:20:17;;;;;;;3.28;0.20;;;;;;;;;;5281306;28;20020;-74
2023/03/15 12:23:06;;;;;;;2.40;0.30;;;;;;;;;;5281451;28;20017;-75
2023/03/15 12:25:43;;;;;;;1.38;0.20;;;;;;;;;;5280576;28;20281;-75
2023/03/15 12:28:19;;;;;;;2.80;0.22;;;;;;;;;;5278388;28;20508;-77
2023/03/15 12:30:55;;;;;;;3.55;0.22;;;;;;;;;;5279889;28;20027;-76
2023/03/15 12:33:27;;;;;;;1.33;0.20;;;;;;;;;;5279808;28;20041;-76
2023/03/15 12:36:06;;;;;;;1.88;0.30;;;;;;;;;;5278908;28;20059;-75
2023/03/15 12:38:40;;;;;;;2.17;0.20;;;;;;;;;;5279239;28;20458;-75
2023/03/15 12:41:30;;;;;;;2.95;0.25;;;;;;;;;;5280314;28;20021;-74
2023/03/15 12:44:18;;;;;;;2.45;0.20;;;;;;;;;;5281852;28;20147;-74
2023/03/15 12:46:49;;;;;;;1.85;0.20;;;;;;;;;;5281166;28;20009;-75
2023/03/15 12:49:23;;;;;;;1.95;0.20;;;;;;;;;;5280836;28;20028;-74
2023/03/15 12:51:56;;;;;;;1.55;0.20;;;;;;;;;;5281474;28;20483;-75
2023/03/15 12:54:40;;;;;;;1.15;0.20;;;;;;;;;;5281142;28;20032;-73
2023/03/15 12:57:12;;;;;;;2.08;0.20;;;;;;;;;;5281596;28;20479;-73
2023/03/15 12:59:43;;;;;;;2.25;0.10;;;;;;;;;;5281414;28;20467;-73
2023/03/15 13:02:24;;;;;;;2.05;0.10;;;;;;;;;;5280844;28;20029;-75
2023/03/15 13:05:18;;;;;;;1.08;0.10;;;;;;;;;;5281986;28;20761;-74
2023/03/15 13:08:05;;;;;;;2.17;0.35;;;;;;;;;;5276010;28;20031;-75
2023/03/15 13:10:52;;;;;;;0.90;0.10;;;;;;;;;;5278580;28;20033;-75
2023/03/15 13:13:37;;;;;;;1.05;0.20;;;;;;;;;;5280698;28;20525;-75
2023/03/15 13:16:18;;;;;;;0.93;0.20;;;;;;;;;;5279824;28;20037;-76
2023/03/15 13:19:04;;;;;;;1.10;0.20;;;;;;;;;;5280189;28;20028;-74
2023/03/15 13:21:38;;;;;;;1.30;0.20;;;;;;;;;;5280408;28;20017;-74
2023/03/15 13:24:14;;;;;;;1.20;0.10;;;;;;;;;;5280666;28;20017;-75
2023/03/15 13:26:58;;;;;;;2.60;0.47;;;;;;;;;;5279524;28;20025;-75
2023/03/15 13:29:31;;;;;;;1.10;0.20;;;;;;;;;;5279574;28;20074;-75
2023/03/15 13:32:12;;;;;;;1.05;0.17;;;;;;;;;;5280881;28;20016;-75
2023/03/15 13:34:45;;;;;;;1.75;0.22;;;;;;;;;;5283152;28;20074;-75
2023/03/15 13:37:20;;;;;;;0.68;0.10;;;;;;;;;;5283099;28;20017;-75
2023/03/15 13:39:53;;;;;;;2.15;0.20;;;;;;;;;;5283821;28;20493;-74
2023/03/15 13:42:24;;;;;;;1.23;0.20;;;;;;;;;;5284539;28;20019;-74
2023/03/15 13:45:22;;;;;;;2.22;0.20;;;;;;;;;;5284604;28;20020;-75
2023/03/15 13:47:53;;;;;;;1.38;0.20;;;;;;;;;;5283868;28;20052;-75
2023/03/15 13:50:24;;;;;;;1.23;0.20;;;;;;;;;;5284154;28;20075;-76
2023/03/15 13:52:55;;;;;;;1.60;0.20;;;;;;;;;;5284485;28;20533;-75
2023/03/15 13:55:30;;;;;;;2.08;0.20;;;;;;;;;;5284338;28;20024;-76
2023/03/15 13:58:06;;;;;;;1.05;0.10;;;;;;;;;;5283968;28;20020;-75
2023/03/15 14:00:38;;;;;;;2.10;0.20;;;;;;;;;;5284121;28;20020;-75
2023/03/15 14:03:15;;;;;;;2.53;0.10;;;;;;;;;;5284814;28;20379;-74
2023/03/15 14:05:51;;;;;;;1.30;0.10;;;;;;;;;;5283429;28;20101;-74
2023/03/15 14:08:30;;;;;;;0.80;0.13;;;;;;;;;;5284595;28;20019;-76
2023/03/15 14:11:04;;;;;;;2.88;0.20;;;;;;;;;;5284633;28;20359;-74
2023/03/15 14:13:46;;;;;;;0.57;0.10;;;;;;;;;;5283330;28;20025;-75
2023/03/15 14:16:36;;;;;;;3.05;0.10;;;;;;;;;;5284351;28;20471;-75
2023/03/15 14:19:21;;;;;;;0.85;0.10;;;;;;;;;;5283910;28;20410;-75
2023/03/15 14:21:54;;;;;;;2.38;0.10;;;;;;;;;;5284366;28;20115;-76
2023/03/15 14:24:35;;;;;;;0.85;0.20;;;;;;;;;;5283354;28;20526;-74
2023/03/15 14:27:27;;;;;;;1.08;0.20;;;;;;;;;;5283324;28;20066;-74
2023/03/15 14:29:59;;;;;;;1.13;0.20;;;;;;;;;;5283419;28;20071;-75
2023/03/15 14:32:35;;;;;;;1.15;0.10;;;;;;;;;;5280601;28;20020;-75
2023/03/15 14:35:17;;;;;;;1.20;0.20;;;;;;;;;;5283006;28;20025;-75
2023/03/15 14:37:59;;;;;;;1.48;0.10;;;;;;;;;;5283132;28;20020;-74
2023/03/15 14:40:33;;;;;;;1.70;0.10;;;;;;;;;;5282575;28;20020;-77
2023/03/15 14:43:06;;;;;;;1.73;0.20;;;;;;;;;;5282717;28;20394;-74
2023/03/15 14:45:38;;;;;;;1.95;0.25;;;;;;;;;;5282964;28;20020;-74
2023/03/15 14:48:14;;;;;;;1.10;0.10;;;;;;;;;;5283119;28;20039;-74
2023/03/15 14:50:46;;;;;;;1.65;0.10;;;;;;;;;;5283041;28;20040;-74
2023/03/15 14:53:18;;;;;;;1.00;0.10;;;;;;;;;;5283922;28;20425;-75
2023/03/15 14:55:49;;;;;;;1.40;0.20;;;;;;;;;;5282261;28;20032;-75
2023/03/15 14:58:21;;;;;;;1.48;0.28;;;;;;;;;;5283365;28;20025;-75
2023/03/15 15:00:53;;;;;;;1.45;0.30;;;;;;;;;;5283379;28;20270;-74
2023/03/15 15:03:33;;;;;;;0.95;0.10;;;;;;;;;;5282438;28;20024;-75
2023/03/15 15:06:06;;;;;;;1.83;0.15;;;;;;;;;;5283542;28;20017;-74
2023/03/15 15:08:38;;;;;;;0.85;0.20;;;;;;;;;;5282049;28;20021;-74
2023/03/15 15:11:10;;;;;;;2.72;0.28;;;;;;;;;;5283512;28;20020;-75
2023/03/15 15:13:41;;;;;;;2.15;0.20;;;;;;;;;;5283105;28;20043;-75
2023/03/15 15:16:12;;;;;;;1.27;0.13;;;;;;;;;;5282657;28;20028;-75
2023/03/15 15:18:44;;;;;;;1.88;0.20;;;;;;;;;;5282405;28;20028;-75
2023/03/15 15:21:21;;;;;;;1.60;0.20;;;;;;;;;;5283154;28;20486;-75
2023/03/15 15:23:53;;;;;;;2.45;0.40;;;;;;;;;;5282299;28;20017;-74